createdAt,value
2023-04-23T00:00:56.175Z,19126.9238
2023-04-23T00:01:57.818Z,19127.8457
2023-04-23T00:02:59.873Z,19127.9238
2023-04-23T00:04:01.474Z,19124.0000
2023-04-23T00:05:02.784Z,19123.8457
2023-04-23T00:06:04.467Z,19130.0000
2023-04-23T00:07:06.013Z,19125.8457
2023-04-23T00:08:07.794Z,19127.2305
2023-04-23T00:09:09.335Z,19127.0000
2023-04-23T00:10:11.007Z,19131.0000
2023-04-23T00:11:13.192Z,19131.2305
2023-04-23T00:12:14.282Z,19130.3848
2023-04-23T00:13:15.909Z,19131.3848
2023-04-23T00:14:17.629Z,19129.3086
2023-04-23T00:15:19.719Z,19129.4609
2023-04-23T00:16:20.887Z,19130.6152
2023-04-23T00:17:22.492Z,19127.8457
2023-04-23T00:18:24.154Z,19130.0000
2023-04-23T00:19:25.828Z,19130.6152
2023-04-23T00:20:27.405Z,19128.3086
2023-04-23T00:21:29.030Z,19125.3848
2023-04-23T00:22:30.737Z,19126.3086
2023-04-23T00:23:32.447Z,19125.2305
2023-04-23T00:24:34.330Z,19126.2305
2023-04-23T00:25:35.590Z,19129.2305
2023-04-23T00:26:37.313Z,19125.8457
2023-04-23T00:27:38.931Z,19128.7695
2023-04-23T00:28:41.340Z,19122.7695
2023-04-23T00:29:42.215Z,19125.0000
2023-04-23T00:30:43.883Z,19125.0000
2023-04-23T00:31:45.485Z,19125.1543
2023-04-23T00:32:47.330Z,19126.1543
2023-04-23T00:33:48.736Z,19123.9238
2023-04-23T00:34:50.770Z,19123.4609
2023-04-23T00:35:52.018Z,19126.8457
2023-04-23T00:36:53.733Z,19126.0000
2023-04-23T00:37:55.290Z,19127.3086
2023-04-23T00:38:57.027Z,19124.8457
2023-04-23T00:39:58.764Z,19125.3848
2023-04-23T00:41:00.353Z,19127.9238
2023-04-23T00:42:01.878Z,19123.5391
2023-04-23T00:43:03.568Z,19120.3086
2023-04-23T00:44:05.325Z,19125.3086
2023-04-23T00:45:06.861Z,19125.6914
2023-04-23T00:46:09.314Z,19123.3848
2023-04-23T00:47:10.072Z,19120.4609
2023-04-23T00:48:11.805Z,19120.6914
2023-04-23T00:49:14.323Z,19120.6152
2023-04-23T00:50:15.163Z,19118.2305
2023-04-23T00:51:17.370Z,19121.8457
2023-04-23T00:52:18.359Z,19119.0762
2023-04-23T00:53:19.982Z,19124.5391
2023-04-23T00:54:21.570Z,19121.7695
2023-04-23T00:55:23.331Z,19127.3086
2023-04-23T00:56:24.960Z,19126.6914
2023-04-23T00:57:26.594Z,19125.3848
2023-04-23T00:58:28.140Z,19125.6152
2023-04-23T00:59:29.817Z,19124.3086
2023-04-23T01:00:32.319Z,19124.5391
2023-04-23T01:01:33.251Z,19127.2305
2023-04-23T01:02:34.812Z,19127.3086
2023-04-23T01:03:36.682Z,19121.9238
2023-04-23T01:04:38.177Z,19128.0762
2023-04-23T01:05:39.853Z,19123.4609
2023-04-23T01:06:41.472Z,19126.6152
2023-04-23T01:07:43.079Z,19127.8457
2023-04-23T01:08:44.727Z,19128.0762
2023-04-23T01:09:46.396Z,19124.9238
2023-04-23T01:10:48.102Z,19130.3848
2023-04-23T01:11:49.755Z,19123.4609
2023-04-23T01:12:51.277Z,19126.2305
2023-04-23T01:13:52.991Z,19126.6152
2023-04-23T01:14:54.538Z,19128.2305
2023-04-23T01:15:56.268Z,19127.6152
2023-04-23T01:16:58.874Z,19130.8457
2023-04-23T01:17:59.593Z,19131.3848
2023-04-23T01:19:01.084Z,19129.6152
2023-04-23T01:20:02.746Z,19133.4609
2023-04-23T01:21:04.467Z,19126.7695
2023-04-23T01:22:06.139Z,19130.6152
2023-04-23T01:23:07.763Z,19125.9238
2023-04-23T01:24:09.367Z,19127.9238
2023-04-23T01:25:10.977Z,19129.3086
2023-04-23T01:26:13.592Z,19124.7695
2023-04-23T01:27:14.341Z,19125.5391
2023-04-23T01:28:15.956Z,19131.0762
2023-04-23T01:29:17.599Z,19124.6914
2023-04-23T01:30:19.232Z,19126.3086
2023-04-23T01:31:20.966Z,19123.4609
2023-04-23T01:32:22.647Z,19111.6152
2023-04-23T01:33:24.118Z,19111.3086
2023-04-23T01:34:26.778Z,19125.6152
2023-04-23T01:35:27.343Z,19131.1543
2023-04-23T01:36:29.359Z,19131.8457
2023-04-23T01:37:30.818Z,19135.0000
2023-04-23T01:38:33.295Z,19123.8457
2023-04-23T01:39:33.996Z,19123.5391
2023-04-23T01:40:36.014Z,19121.3848
2023-04-23T01:41:37.237Z,19125.0000
2023-04-23T01:42:38.944Z,19120.6914
2023-04-23T01:43:40.558Z,19129.8457
2023-04-23T01:44:42.568Z,19129.3086
2023-04-23T01:45:43.914Z,19117.9238
2023-04-23T01:46:45.432Z,19120.6152
2023-04-23T01:47:47.224Z,19130.6914
2023-04-23T01:48:48.762Z,19128.0000
2023-04-23T01:49:50.397Z,19134.8457
2023-04-23T01:50:52.141Z,19132.0762
2023-04-23T01:51:53.672Z,19124.0000
2023-04-23T01:52:55.406Z,19126.9238
2023-04-23T01:53:56.918Z,19123.0762
2023-04-23T01:54:59.038Z,19125.3848
2023-04-23T01:56:00.236Z,19121.6914
2023-04-23T01:57:01.880Z,19127.8457
2023-04-23T01:58:03.505Z,19130.5391
2023-04-23T01:59:06.466Z,19125.9238
2023-04-23T02:00:06.760Z,19120.6152
2023-04-23T02:01:09.492Z,19123.3086
2023-04-23T02:02:10.069Z,19124.3086
2023-04-23T02:03:11.892Z,19131.8457
2023-04-23T02:04:13.380Z,19135.0000
2023-04-23T02:05:15.181Z,19129.6152
2023-04-23T02:06:16.613Z,19129.7695
2023-04-23T02:07:18.286Z,19128.0000
2023-04-23T02:08:19.938Z,19121.3848
2023-04-23T02:09:22.649Z,19125.7695
2023-04-23T02:10:23.163Z,19129.0000
2023-04-23T02:11:25.096Z,19126.6914
2023-04-23T02:12:26.584Z,19127.3848
2023-04-23T02:13:28.514Z,19132.2305
2023-04-23T02:14:29.756Z,19131.0762
2023-04-23T02:15:31.487Z,19135.2305
2023-04-23T02:16:33.136Z,19131.0762
2023-04-23T02:17:34.784Z,19129.8457
2023-04-23T02:18:36.366Z,19124.9238
2023-04-23T02:19:38.083Z,19124.2305
2023-04-23T02:20:39.666Z,19120.0762
2023-04-23T02:21:41.422Z,19128.2305
2023-04-23T02:22:43.882Z,19112.9238
2023-04-23T02:23:44.664Z,19111.0762
2023-04-23T02:24:46.306Z,19117.3848
2023-04-23T02:25:48.004Z,19114.6914
2023-04-23T02:26:49.549Z,19121.1543
2023-04-23T02:27:51.218Z,19129.3086
2023-04-23T02:28:53.010Z,19129.8457
2023-04-23T02:29:54.499Z,19134.6152
2023-04-23T02:30:56.090Z,19134.6914
2023-04-23T02:31:57.930Z,19124.3848
2023-04-23T02:32:59.437Z,19113.6914
2023-04-23T02:34:01.029Z,19119.6914
2023-04-23T02:35:02.645Z,19108.3086
2023-04-23T02:36:04.308Z,19107.0762
2023-04-23T02:37:06.957Z,19118.2305
2023-04-23T02:38:07.521Z,19122.2305
2023-04-23T02:39:09.102Z,19127.6152
2023-04-23T02:40:10.907Z,19131.3848
2023-04-23T02:41:12.928Z,19131.9238
2023-04-23T02:42:14.204Z,19132.0000
2023-04-23T02:43:15.783Z,19141.0000
2023-04-23T02:44:17.426Z,19138.5391
2023-04-23T02:45:19.088Z,19139.4609
2023-04-23T02:46:20.780Z,19124.4609
2023-04-23T02:47:22.447Z,19111.8457
2023-04-23T02:48:24.031Z,19106.1543
2023-04-23T02:49:25.650Z,19106.0762
2023-04-23T02:50:27.305Z,19105.0762
2023-04-23T02:51:29.509Z,19102.8457
2023-04-23T02:52:30.579Z,19104.6152
2023-04-23T02:53:32.217Z,19106.6914
2023-04-23T02:54:33.829Z,19114.8457
2023-04-23T02:55:35.500Z,19124.8457
2023-04-23T02:56:37.144Z,19129.3086
2023-04-23T02:57:38.932Z,19136.6914
2023-04-23T02:58:40.392Z,19130.3086
2023-04-23T02:59:42.118Z,19126.7695
2023-04-23T03:00:43.725Z,19115.2305
2023-04-23T03:01:45.394Z,19112.3086
2023-04-23T03:02:47.126Z,19120.6152
2023-04-23T03:03:48.869Z,19119.7695
2023-04-23T03:04:50.256Z,19108.7695
2023-04-23T03:05:51.926Z,19110.7695
2023-04-23T03:06:53.639Z,19106.4609
2023-04-23T03:07:55.936Z,19115.2305
2023-04-23T03:08:56.812Z,19130.7695
2023-04-23T03:09:58.539Z,19136.0000
2023-04-23T03:11:00.167Z,19132.3086
2023-04-23T03:12:02.486Z,19135.4609
2023-04-23T03:13:03.454Z,19124.3086
2023-04-23T03:14:05.140Z,19116.9238
2023-04-23T03:15:06.706Z,19108.6152
2023-04-23T03:16:08.934Z,19103.3086
2023-04-23T03:17:10.060Z,19111.0762
2023-04-23T03:18:11.716Z,19110.7695
2023-04-23T03:19:13.345Z,19109.6152
2023-04-23T03:20:15.914Z,19115.3086
2023-04-23T03:21:16.557Z,19122.2305
2023-04-23T03:22:18.307Z,19125.3086
2023-04-23T03:23:19.926Z,19128.8457
2023-04-23T03:24:21.559Z,19135.6914
2023-04-23T03:25:23.117Z,19132.8457
2023-04-23T03:26:24.828Z,19119.7695
2023-04-23T03:27:26.481Z,19121.8457
2023-04-23T03:28:28.162Z,19112.6152
2023-04-23T03:29:29.707Z,19110.6152
2023-04-23T03:30:31.381Z,19106.2305
2023-04-23T03:31:32.975Z,19106.5391
2023-04-23T03:32:34.714Z,19111.0000
2023-04-23T03:33:36.341Z,19125.7695
2023-04-23T03:34:37.952Z,19129.0000
2023-04-23T03:35:39.594Z,19135.3848
2023-04-23T03:36:41.204Z,19132.1543
2023-04-23T03:37:42.907Z,19132.3848
2023-04-23T03:38:44.596Z,19137.4609
2023-04-23T03:39:46.147Z,19123.7695
2023-04-23T03:40:47.843Z,19117.0762
2023-04-23T03:41:49.418Z,19120.8457
2023-04-23T03:42:51.169Z,19120.5391
2023-04-23T03:43:53.430Z,19119.0762
2023-04-23T03:44:54.371Z,19119.8457
2023-04-23T03:45:56.104Z,19128.3848
2023-04-23T03:46:58.402Z,19128.0000
2023-04-23T03:47:59.428Z,19128.9238
2023-04-23T03:49:01.454Z,19136.9238
2023-04-23T03:50:02.604Z,19138.8457
2023-04-23T03:51:04.229Z,19131.7695
2023-04-23T03:52:05.908Z,19135.3086
2023-04-23T03:53:07.596Z,19119.1543
2023-04-23T03:54:09.128Z,19110.3086
2023-04-23T03:55:10.787Z,19102.9238
2023-04-23T03:56:12.397Z,19102.4609
2023-04-23T03:57:14.016Z,19101.6914
2023-04-23T03:58:15.700Z,19101.1543
2023-04-23T03:59:17.333Z,19098.2305
2023-04-23T04:00:19.032Z,19089.2305
2023-04-23T04:01:20.594Z,19084.0762
2023-04-23T04:02:22.408Z,19080.5391
2023-04-23T04:03:25.185Z,19092.6152
2023-04-23T04:04:25.832Z,19091.3086
2023-04-23T04:05:27.309Z,19088.8457
2023-04-23T04:06:28.914Z,19080.3848
2023-04-23T04:07:30.464Z,19076.3848
2023-04-23T04:08:32.133Z,19076.6152
2023-04-23T04:09:33.764Z,19075.2305
2023-04-23T04:10:35.932Z,19073.9238
2023-04-23T04:11:37.410Z,19070.2305
2023-04-23T04:12:38.739Z,19065.6152
2023-04-23T04:13:40.370Z,19067.8457
2023-04-23T04:14:42.301Z,19069.2305
2023-04-23T04:15:44.459Z,19061.3086
2023-04-23T04:16:45.368Z,19061.9238
2023-04-23T04:17:47.017Z,19064.6914
2023-04-23T04:18:48.724Z,19053.5391
2023-04-23T04:19:50.606Z,19051.7695
2023-04-23T04:20:52.031Z,19050.9238
2023-04-23T04:21:53.630Z,19046.0000
2023-04-23T04:22:55.295Z,19048.8457
2023-04-23T04:23:57.980Z,19044.3086
2023-04-23T04:24:58.454Z,19039.6152
2023-04-23T04:26:00.203Z,19036.3086
2023-04-23T04:27:01.869Z,19035.8457
2023-04-23T04:28:03.554Z,19034.0762
2023-04-23T04:29:05.126Z,19030.7695
2023-04-23T04:30:06.880Z,19029.4609
2023-04-23T04:31:08.505Z,19030.8457
2023-04-23T04:32:10.098Z,19026.3086
2023-04-23T04:33:11.770Z,19026.0000
2023-04-23T04:34:13.449Z,19020.5391
2023-04-23T04:35:14.968Z,19016.5391
2023-04-23T04:36:16.703Z,19015.6914
2023-04-23T04:37:18.279Z,19016.3848
2023-04-23T04:38:19.960Z,19014.2305
2023-04-23T04:39:21.583Z,19007.8457
2023-04-23T04:40:23.278Z,19007.6152
2023-04-23T04:41:24.920Z,19006.6152
2023-04-23T04:42:26.534Z,19002.0762
2023-04-23T04:43:28.227Z,19003.8457
2023-04-23T04:44:29.796Z,19003.3848
2023-04-23T04:45:31.509Z,18997.6152
2023-04-23T04:46:33.131Z,18997.4609
2023-04-23T04:47:34.776Z,18999.7695
2023-04-23T04:48:37.377Z,18993.0762
2023-04-23T04:49:38.089Z,18990.3848
2023-04-23T04:50:39.680Z,18995.6914
2023-04-23T04:51:41.293Z,18990.6914
2023-04-23T04:52:42.983Z,18989.1543
2023-04-23T04:53:44.589Z,18981.3848
2023-04-23T04:54:46.226Z,18985.0000
2023-04-23T04:55:47.907Z,18982.1543
2023-04-23T04:56:49.627Z,18978.4609
2023-04-23T04:57:52.200Z,18974.9238
2023-04-23T04:58:53.776Z,18974.9238
2023-04-23T04:59:55.350Z,18980.3848
2023-04-23T05:00:56.098Z,18969.3848
2023-04-23T05:01:57.793Z,18967.1543
2023-04-23T05:02:59.535Z,18967.1543
2023-04-23T05:04:01.109Z,18968.0762
2023-04-23T05:05:02.619Z,18962.6914
2023-04-23T05:06:04.302Z,18969.0000
2023-04-23T05:07:05.925Z,18969.0762
2023-04-23T05:08:07.574Z,18959.1543
2023-04-23T05:09:09.173Z,18963.3086
2023-04-23T05:10:10.931Z,18964.2305
2023-04-23T05:11:12.498Z,18963.6152
2023-04-23T05:12:14.238Z,18957.8457
2023-04-23T05:13:15.855Z,18961.0762
2023-04-23T05:14:17.459Z,18961.0762
2023-04-23T05:15:19.108Z,18953.2305
2023-04-23T05:16:20.871Z,18953.1543
2023-04-23T05:17:23.075Z,18954.7695
2023-04-23T05:18:24.120Z,18952.6914
2023-04-23T05:19:25.647Z,18950.6152
2023-04-23T05:20:27.352Z,18956.2305
2023-04-23T05:21:29.022Z,18951.3086
2023-04-23T05:22:30.670Z,18949.9238
2023-04-23T05:23:32.213Z,18958.2305
2023-04-23T05:24:33.948Z,18954.0000
2023-04-23T05:25:35.580Z,18953.3086
2023-04-23T05:26:37.267Z,18951.5391
2023-04-23T05:27:38.893Z,18952.0000
2023-04-23T05:28:40.517Z,18940.6914
2023-04-23T05:29:42.118Z,18945.9238
2023-04-23T05:30:43.804Z,18940.0762
2023-04-23T05:31:45.498Z,18940.2305
2023-04-23T05:32:47.198Z,18938.3086
2023-04-23T05:33:50.504Z,18940.8457
2023-04-23T05:34:50.372Z,18939.5391
2023-04-23T05:35:52.019Z,18940.1543
2023-04-23T05:36:53.772Z,18936.0000
2023-04-23T05:37:55.373Z,18940.3848
2023-04-23T05:38:56.996Z,18933.6152
2023-04-23T05:39:58.577Z,18927.9238
2023-04-23T05:41:00.291Z,18927.9238
2023-04-23T05:42:02.405Z,18926.3086
2023-04-23T05:43:03.579Z,18926.0000
2023-04-23T05:44:05.185Z,18930.6914
2023-04-23T05:45:08.864Z,18928.0762
2023-04-23T05:46:08.512Z,18924.0762
2023-04-23T05:47:10.203Z,18925.3086
2023-04-23T05:48:11.843Z,18925.3086
2023-04-23T05:49:13.468Z,18920.5391
2023-04-23T05:50:15.092Z,18922.0000
2023-04-23T05:51:16.788Z,18919.7695
2023-04-23T05:52:18.434Z,18919.0762
2023-04-23T05:53:20.162Z,18914.4609
2023-04-23T05:54:21.653Z,18915.0000
2023-04-23T05:55:23.338Z,18912.2305
2023-04-23T05:56:25.058Z,18909.6152
2023-04-23T05:57:27.525Z,18910.8457
2023-04-23T05:58:28.346Z,18907.3086
2023-04-23T05:59:29.978Z,18906.3086
2023-04-23T06:00:31.630Z,18903.6914
2023-04-23T06:01:33.205Z,18905.2305
2023-04-23T06:02:35.042Z,18903.3086
2023-04-23T06:03:36.793Z,18902.9238
2023-04-23T06:04:38.361Z,18901.1543
2023-04-23T06:05:39.835Z,18896.2305
2023-04-23T06:06:41.484Z,18899.0762
2023-04-23T06:07:43.180Z,18903.0762
2023-04-23T06:08:45.063Z,18893.4609
2023-04-23T06:09:46.401Z,18893.8457
2023-04-23T06:10:48.108Z,18896.5391
2023-04-23T06:11:49.683Z,18892.5391
2023-04-23T06:12:51.592Z,18891.5391
2023-04-23T06:13:53.060Z,18889.2305
2023-04-23T06:14:54.689Z,18887.7695
2023-04-23T06:15:56.319Z,18888.3086
2023-04-23T06:16:57.981Z,18890.5391
2023-04-23T06:17:59.666Z,18887.2305
2023-04-23T06:19:01.588Z,18890.3086
2023-04-23T06:20:02.904Z,18889.7695
2023-04-23T06:21:04.566Z,18884.0000
2023-04-23T06:22:06.164Z,18883.1543
2023-04-23T06:23:07.866Z,18885.0762
2023-04-23T06:24:09.504Z,18887.0762
2023-04-23T06:25:11.180Z,18882.3848
2023-04-23T06:26:12.722Z,18880.0762
2023-04-23T06:27:14.421Z,18879.0762
2023-04-23T06:28:16.163Z,18879.7695
2023-04-23T06:29:17.758Z,18873.8457
2023-04-23T06:30:19.374Z,18873.1543
2023-04-23T06:31:21.061Z,18873.4609
2023-04-23T06:32:22.630Z,18870.2305
2023-04-23T06:33:24.284Z,18864.8457
2023-04-23T06:34:26.131Z,18867.0000
2023-04-23T06:35:27.635Z,18865.2305
2023-04-23T06:36:29.166Z,18866.3086
2023-04-23T06:37:31.029Z,18867.1543
2023-04-23T06:38:32.428Z,18862.9238
2023-04-23T06:39:34.183Z,18859.8457
2023-04-23T06:40:35.718Z,18858.4609
2023-04-23T06:41:37.337Z,18860.1543
2023-04-23T06:42:40.096Z,18854.0000
2023-04-23T06:43:40.887Z,18853.3086
2023-04-23T06:44:42.675Z,18851.6914
2023-04-23T06:45:44.232Z,18853.8457
2023-04-23T06:46:45.826Z,18852.4609
2023-04-23T06:47:48.212Z,18848.3848
2023-04-23T06:48:48.999Z,18849.0762
2023-04-23T06:49:50.736Z,18844.3086
2023-04-23T06:50:52.379Z,18846.7695
2023-04-23T06:51:56.975Z,18845.3086
2023-04-23T06:52:55.476Z,18841.9238
2023-04-23T06:53:57.193Z,18841.5391
2023-04-23T06:54:59.862Z,18833.9238
2023-04-23T06:56:00.461Z,18831.3848
2023-04-23T06:57:02.179Z,18831.3848
2023-04-23T06:58:03.753Z,18829.6152
2023-04-23T06:59:05.356Z,18876.6914
2023-04-23T07:00:07.109Z,18958.6914
2023-04-23T07:01:08.701Z,18994.8457
2023-04-23T07:02:10.369Z,18929.6152
2023-04-23T07:03:11.997Z,18911.1543
2023-04-23T07:04:13.669Z,18905.0762
2023-04-23T07:05:15.272Z,18892.0762
2023-04-23T07:06:18.603Z,18889.1543
2023-04-23T07:07:18.508Z,18884.1543
2023-04-23T07:08:20.205Z,18877.9238
2023-04-23T07:09:21.818Z,18878.6152
2023-04-23T07:10:23.560Z,18869.0000
2023-04-23T07:11:25.142Z,18858.6152
2023-04-23T07:12:26.830Z,18852.6914
2023-04-23T07:13:28.442Z,18896.8457
2023-04-23T07:14:30.087Z,18984.6152
2023-04-23T07:15:31.845Z,18983.8457
2023-04-23T07:16:33.480Z,18935.6152
2023-04-23T07:17:34.992Z,18915.6914
2023-04-23T07:18:36.657Z,18904.1543
2023-04-23T07:19:38.288Z,18898.5391
2023-04-23T07:20:39.989Z,18891.9238
2023-04-23T07:21:41.578Z,18885.4609
2023-04-23T07:22:43.232Z,18881.0762
2023-04-23T07:23:44.865Z,18876.0762
2023-04-23T07:24:46.522Z,18870.6152
2023-04-23T07:25:48.183Z,18870.3848
2023-04-23T07:26:49.858Z,18950.1543
2023-04-23T07:27:51.401Z,18985.0000
2023-04-23T07:28:53.183Z,18957.4609
2023-04-23T07:29:54.704Z,18918.6914
2023-04-23T07:30:56.454Z,18917.8457
2023-04-23T07:31:58.077Z,18915.0000
2023-04-23T07:32:59.718Z,18901.6152
2023-04-23T07:34:01.392Z,18888.2305
2023-04-23T07:35:02.975Z,18877.3848
2023-04-23T07:36:04.598Z,18862.0762
2023-04-23T07:37:06.316Z,18915.7695
2023-04-23T07:38:07.860Z,18978.3848
2023-04-23T07:39:09.545Z,18993.7695
2023-04-23T07:40:11.189Z,18940.3848
2023-04-23T07:41:12.914Z,18940.0000
2023-04-23T07:42:15.068Z,18927.8457
2023-04-23T07:43:16.142Z,18906.6914
2023-04-23T07:44:17.761Z,18905.5391
2023-04-23T07:45:19.500Z,18906.5391
2023-04-23T07:46:21.146Z,18901.4609
2023-04-23T07:47:23.002Z,18896.8457
2023-04-23T07:48:24.413Z,18899.6914
2023-04-23T07:49:26.021Z,18964.5391
2023-04-23T07:50:27.637Z,18994.3848
2023-04-23T07:51:29.351Z,18941.7695
2023-04-23T07:52:30.957Z,18928.2305
2023-04-23T07:53:32.577Z,18905.7695
2023-04-23T07:54:34.207Z,18920.4609
2023-04-23T07:55:35.917Z,18909.0762
2023-04-23T07:56:37.597Z,18909.3086
2023-04-23T07:57:39.241Z,18909.2305
2023-04-23T07:58:40.815Z,18910.3848
2023-04-23T07:59:42.863Z,18900.7695
2023-04-23T08:00:44.088Z,18890.9238
2023-04-23T08:01:45.820Z,18888.9238
2023-04-23T08:02:47.614Z,18899.6152
2023-04-23T08:03:49.440Z,18890.3848
2023-04-23T08:04:50.827Z,18893.9238
2023-04-23T08:05:52.336Z,18888.2305
2023-04-23T08:06:54.045Z,18884.4609
2023-04-23T08:07:55.645Z,18882.7695
2023-04-23T08:08:57.308Z,18892.1543
2023-04-23T08:09:58.900Z,18881.2305
2023-04-23T08:11:00.547Z,18872.5391
2023-04-23T08:12:02.236Z,18882.1543
2023-04-23T08:13:03.902Z,18873.0762
2023-04-23T08:14:05.496Z,18868.6152
2023-04-23T08:15:07.220Z,18871.0762
2023-04-23T08:16:08.790Z,18871.2305
2023-04-23T08:17:10.463Z,18862.4609
2023-04-23T08:18:12.107Z,18869.0762
2023-04-23T08:19:13.706Z,18860.6914
2023-04-23T08:20:15.302Z,18862.0762
2023-04-23T08:21:17.031Z,18861.5391
2023-04-23T08:22:20.293Z,18864.2305
2023-04-23T08:23:20.353Z,18860.6152
2023-04-23T08:24:22.456Z,18861.5391
2023-04-23T08:25:23.603Z,18857.5391
2023-04-23T08:26:25.214Z,18860.5391
2023-04-23T08:27:26.971Z,18860.6152
2023-04-23T08:28:28.593Z,18866.7695
2023-04-23T08:29:30.208Z,18858.7695
2023-04-23T08:30:31.789Z,18850.3848
2023-04-23T08:31:33.509Z,18858.9238
2023-04-23T08:32:35.158Z,18850.3848
2023-04-23T08:33:36.875Z,18849.6914
2023-04-23T08:34:38.442Z,18852.8457
2023-04-23T08:35:40.078Z,18848.0762
2023-04-23T08:36:41.649Z,18851.1543
2023-04-23T08:37:43.444Z,18843.7695
2023-04-23T08:38:44.989Z,18845.5391
2023-04-23T08:39:46.686Z,18843.3086
2023-04-23T08:40:48.227Z,18840.5391
2023-04-23T08:41:49.926Z,18848.0762
2023-04-23T08:42:51.644Z,18845.3086
2023-04-23T08:43:53.238Z,18839.2305
2023-04-23T08:44:54.801Z,18831.2305
2023-04-23T08:45:56.510Z,18839.6152
2023-04-23T08:46:58.248Z,18845.8457
2023-04-23T08:48:02.134Z,18843.0762
2023-04-23T08:49:01.452Z,18849.1543
2023-04-23T08:50:03.074Z,18836.5391
2023-04-23T08:51:04.690Z,18840.4609
2023-04-23T08:52:06.380Z,18862.6914
2023-04-23T08:53:08.065Z,18967.5391
2023-04-23T08:54:09.679Z,19003.5391
2023-04-23T08:55:11.255Z,19024.2305
2023-04-23T08:56:12.940Z,19056.6914
2023-04-23T08:57:14.574Z,19058.8457
2023-04-23T08:58:16.279Z,19017.3086
2023-04-23T08:59:17.911Z,19029.6152
2023-04-23T09:00:19.455Z,19024.1543
2023-04-23T09:01:21.297Z,19004.8457
2023-04-23T09:02:22.986Z,18982.2305
2023-04-23T09:03:24.547Z,18943.6152
2023-04-23T09:04:26.164Z,18935.7695
2023-04-23T09:05:27.710Z,18958.4609
2023-04-23T09:06:29.422Z,18949.2305
2023-04-23T09:07:31.023Z,18919.6152
2023-04-23T09:08:32.753Z,18911.1543
2023-04-23T09:09:34.641Z,18913.2305
2023-04-23T09:10:35.974Z,18891.4609
2023-04-23T09:11:37.577Z,18888.9238
2023-04-23T09:12:39.276Z,18874.0000
2023-04-23T09:13:40.950Z,18893.3086
2023-04-23T09:14:42.852Z,18878.2305
2023-04-23T09:15:44.169Z,18881.8457
2023-04-23T09:16:45.922Z,18865.6914
2023-04-23T09:17:47.529Z,18870.3848
2023-04-23T09:18:49.194Z,18878.3086
2023-04-23T09:19:50.858Z,18880.6152
2023-04-23T09:20:52.528Z,18870.2305
2023-04-23T09:21:54.046Z,18860.2305
2023-04-23T09:22:55.727Z,18872.8457
2023-04-23T09:23:57.449Z,18873.3086
2023-04-23T09:24:59.090Z,18879.4609
2023-04-23T09:26:00.627Z,18872.9238
2023-04-23T09:27:02.267Z,18866.4609
2023-04-23T09:28:03.958Z,18876.7695
2023-04-23T09:29:05.609Z,18869.6152
2023-04-23T09:30:07.294Z,18872.0762
2023-04-23T09:31:08.879Z,18872.2305
2023-04-23T09:32:10.586Z,18872.7695
2023-04-23T09:33:12.151Z,18867.6152
2023-04-23T09:34:14.206Z,18858.2305
2023-04-23T09:35:15.554Z,18862.8457
2023-04-23T09:36:17.233Z,18864.3086
2023-04-23T09:37:18.783Z,18863.6152
2023-04-23T09:38:20.428Z,18864.7695
2023-04-23T09:39:22.065Z,18858.0762
2023-04-23T09:40:23.749Z,18851.1543
2023-04-23T09:41:25.304Z,18850.3086
2023-04-23T09:42:26.986Z,18836.3848
2023-04-23T09:43:28.575Z,18842.0762
2023-04-23T09:44:30.353Z,18840.3086
2023-04-23T09:45:31.945Z,18834.6152
2023-04-23T09:46:33.562Z,18835.9238
2023-04-23T09:47:35.252Z,18836.4609
2023-04-23T09:48:36.879Z,18822.3086
2023-04-23T09:49:38.534Z,18830.6152
2023-04-23T09:50:40.245Z,18822.7695
2023-04-23T09:51:41.769Z,18821.0000
2023-04-23T09:52:43.431Z,18815.2305
2023-04-23T09:53:45.056Z,18853.0762
2023-04-23T09:54:47.214Z,18945.6152
2023-04-23T09:55:48.397Z,18987.1543
2023-04-23T09:56:50.076Z,18960.8457
2023-04-23T09:57:51.611Z,18925.2305
2023-04-23T09:58:53.366Z,18925.3086
2023-04-23T10:00:03.754Z,18926.0762
2023-04-23T10:00:56.638Z,18915.0762
2023-04-23T10:01:58.289Z,18908.6914
2023-04-23T10:03:00.168Z,18886.6152
2023-04-23T10:04:01.694Z,18881.4609
2023-04-23T10:05:21.468Z,18865.8457
2023-04-23T10:06:05.264Z,18871.8457
2023-04-23T10:07:17.923Z,18853.8457
2023-04-23T10:08:08.232Z,18836.5391
2023-04-23T10:09:09.704Z,18844.3086
2023-04-23T10:10:11.463Z,18835.0000
2023-04-23T10:11:20.734Z,18834.0000
2023-04-23T10:13:16.302Z,18839.3086
2023-04-23T10:14:17.962Z,18834.2305
2023-04-23T10:15:19.684Z,18827.6152
2023-04-23T10:16:23.284Z,18824.0000
2023-04-23T10:17:22.932Z,18824.3848
2023-04-23T10:18:24.492Z,18841.4609
2023-04-23T10:19:27.171Z,18899.0000
2023-04-23T10:20:27.878Z,18853.7695
2023-04-23T10:21:36.620Z,18848.8457
2023-04-23T10:22:31.067Z,18859.6914
2023-04-23T10:23:32.802Z,18871.9238
2023-04-23T10:24:34.371Z,18898.1543
2023-04-23T10:25:36.729Z,18882.7695
2023-04-23T10:26:38.190Z,18880.9238
2023-04-23T10:27:51.118Z,18855.6152
2023-04-23T10:28:41.042Z,18858.0762
2023-04-23T10:29:43.017Z,18874.0762
2023-04-23T10:30:44.681Z,18852.6914
2023-04-23T10:31:45.980Z,18879.1543
2023-04-23T10:32:47.561Z,18945.7695
2023-04-23T10:33:58.204Z,18915.8457
2023-04-23T10:34:50.931Z,18881.6914
2023-04-23T10:35:52.601Z,18863.5391
2023-04-23T10:36:54.181Z,18880.3086
2023-04-23T10:37:55.844Z,18965.3848
2023-04-23T10:38:59.106Z,18962.1543
2023-04-23T10:39:59.132Z,18926.3086
2023-04-23T10:41:00.801Z,18894.3848
2023-04-23T10:42:02.466Z,18875.5391
2023-04-23T10:43:04.026Z,18858.3086
2023-04-23T10:44:05.723Z,18882.6914
2023-04-23T10:45:16.613Z,18910.9238
2023-04-23T10:46:09.139Z,18911.4609
2023-04-23T10:47:10.738Z,18890.7695
2023-04-23T10:48:12.460Z,18893.9238
2023-04-23T10:49:14.016Z,18902.4609
2023-04-23T10:50:15.744Z,18899.6152
2023-04-23T10:51:56.084Z,18875.7695
2023-04-23T10:52:21.495Z,18870.4609
2023-04-23T10:53:20.604Z,18851.7695
2023-04-23T10:54:22.319Z,18895.6914
2023-04-23T10:55:23.969Z,18912.4609
2023-04-23T10:56:25.789Z,18907.3086
2023-04-23T10:57:27.271Z,18920.3848
2023-04-23T10:58:28.943Z,18924.7695
2023-04-23T10:59:30.465Z,18931.6152
2023-04-23T11:00:32.164Z,18954.9238
2023-04-23T11:01:33.827Z,18952.5391
2023-04-23T11:02:35.607Z,18895.8457
2023-04-23T11:03:39.646Z,18884.4609
2023-04-23T11:04:38.834Z,18896.3848
2023-04-23T11:05:40.389Z,18926.8457
2023-04-23T11:06:42.089Z,18914.5391
2023-04-23T11:07:43.750Z,18904.8457
2023-04-23T11:08:45.426Z,18870.9238
2023-04-23T11:09:47.013Z,18868.6152
2023-04-23T11:10:48.667Z,18868.0762
2023-04-23T11:11:50.288Z,18888.1543
2023-04-23T11:12:52.027Z,18952.5391
2023-04-23T11:13:53.621Z,18932.0762
2023-04-23T11:14:55.307Z,18905.8457
2023-04-23T11:15:56.907Z,18910.9238
2023-04-23T11:16:58.530Z,18888.0000
2023-04-23T11:18:00.216Z,18870.4609
2023-04-23T11:19:01.911Z,18920.2305
2023-04-23T11:20:03.558Z,19023.6914
2023-04-23T11:21:05.187Z,19032.5391
2023-04-23T11:22:06.767Z,19034.6914
2023-04-23T11:23:08.462Z,19032.4609
2023-04-23T11:24:10.097Z,19076.6914
2023-04-23T11:25:11.842Z,19044.1543